Time;durP1;ratioP1;P1;durP2;ratioP2;P2;SDS_P1;SDS_P2;PMS_P1;PMS_P2;Temp;Humidity;BMP_temperature;BMP_pressure;BME280_temperature;BME280_humidity;BME280_pressure;Samples;Min_cycle;Max_cycle;Signal;HPM_P1;HPM_P2
2021/07/11 00:01:56;;;;;;;11.02;4.18;;;;;;;25.17;43.17;100586.97;4409634;32;20077;-73
2021/07/11 00:04:21;;;;;;;6.57;4.07;;;;;;;25.05;43.35;100585.53;4413034;32;20022;-73
2021/07/11 00:06:47;;;;;;;6.40;4.18;;;;;;;25.11;43.25;100589.13;4412592;32;20441;-73
2021/07/11 00:09:13;;;;;;;7.50;3.90;;;;;;;25.15;43.10;100589.59;4411872;32;20153;-73
2021/07/11 00:11:39;;;;;;;14.30;4.40;;;;;;;25.25;42.82;100582.13;4415398;32;20021;-72
2021/07/11 00:14:05;;;;;;;6.43;3.87;;;;;;;25.20;43.20;100582.19;4412568;32;20054;-73
2021/07/11 00:16:33;;;;;;;7.60;3.78;;;;;;;24.92;43.42;100579.69;4411165;32;20064;-73
2021/07/11 00:18:58;;;;;;;6.32;4.32;;;;;;;25.12;43.30;100575.47;4411033;32;20076;-73
2021/07/11 00:21:24;;;;;;;6.10;4.53;;;;;;;24.95;43.51;100578.56;4412740;32;20562;-73
2021/07/11 00:23:50;;;;;;;9.20;4.53;;;;;;;24.87;43.64;100577.66;4412193;32;20387;-73
2021/07/11 00:26:16;;;;;;;7.32;4.50;;;;;;;24.85;43.70;100573.75;4412760;32;20064;-72
2021/07/11 00:28:45;;;;;;;6.80;4.32;;;;;;;24.90;43.85;100573.69;4412513;32;20089;-73
2021/07/11 00:31:12;;;;;;;11.63;4.53;;;;;;;24.99;43.65;100567.56;4411418;32;20092;-73
2021/07/11 00:33:38;;;;;;;7.12;4.68;;;;;;;25.00;43.68;100574.84;4411197;32;20077;-73
2021/07/11 00:36:04;;;;;;;6.62;4.45;;;;;;;25.09;43.40;100574.47;4413297;32;20123;-73
2021/07/11 00:38:30;;;;;;;12.25;4.62;;;;;;;24.86;43.69;100576.09;4414952;32;20034;-73
2021/07/11 00:40:55;;;;;;;6.85;4.75;;;;;;;24.67;44.20;100575.25;4411052;32;20015;-73
2021/07/11 00:43:21;;;;;;;8.57;5.03;;;;;;;24.77;44.05;100573.59;4412011;32;20104;-73
2021/07/11 00:45:47;;;;;;;10.70;5.47;;;;;;;24.71;44.14;100575.75;4411171;32;20104;-73
2021/07/11 00:48:13;;;;;;;7.28;4.70;;;;;;;24.84;43.96;100584.50;4410261;32;20074;-73
2021/07/11 00:50:39;;;;;;;10.75;4.45;;;;;;;24.84;43.86;100584.50;4411465;32;20052;-73
2021/07/11 00:53:08;;;;;;;7.90;4.68;;;;;;;24.89;43.74;100589.41;4410912;32;20098;-73
2021/07/11 00:55:35;;;;;;;6.80;4.30;;;;;;;24.92;43.89;100587.53;4412804;32;20145;-73
2021/07/11 00:58:02;;;;;;;8.85;3.92;;;;;;;25.07;43.57;100597.28;4412218;32;20022;-73
2021/07/11 01:00:28;;;;;;;9.02;4.60;;;;;;;24.85;43.74;100597.56;4407445;32;20281;-73
2021/07/11 01:03:21;;;;;;;7.75;4.95;;;;;;;24.91;43.71;100600.38;4410483;32;20112;-73
2021/07/11 01:05:47;;;;;;;9.35;4.60;;;;;;;25.14;43.19;100596.69;4411988;32;20018;-73
2021/07/11 01:08:23;;;;;;;7.62;4.55;;;;;;;24.89;43.78;100598.03;4411327;32;20126;-73
2021/07/11 01:11:00;;;;;;;9.77;4.80;;;;;;;25.13;43.41;100597.22;4412848;32;20417;-73
2021/07/11 01:13:28;;;;;;;7.62;4.55;;;;;;;24.89;44.06;100597.25;4410819;32;20104;-73
2021/07/11 01:15:55;;;;;;;7.85;4.45;;;;;;;24.76;44.24;100603.66;4411687;32;20456;-73
2021/07/11 01:18:23;;;;;;;9.48;5.25;;;;;;;24.78;44.21;100595.28;4411259;32;20044;-73
2021/07/11 01:20:55;;;;;;;8.85;4.60;;;;;;;24.74;44.18;100594.81;4413924;32;20110;-73
2021/07/11 01:26:02;;;;;;;9.45;4.45;;;;;;;25.00;43.99;100600.78;3981761;32;15149785;-72
2021/07/11 01:28:28;;;;;;;6.43;4.82;;;;;;;25.00;43.99;100600.78;4439475;32;20100;-72
2021/07/11 01:30:55;;;;;;;6.85;4.53;;;;;;;24.53;44.80;100587.16;4439415;32;20434;-72
2021/07/11 01:33:24;;;;;;;9.82;4.28;;;;;;;24.53;44.83;100590.81;4429294;32;20060;-73
2021/07/11 01:35:50;;;;;;;8.85;5.00;;;;;;;24.59;44.84;100588.66;4435716;32;20508;-73
2021/07/11 01:38:17;;;;;;;7.37;4.75;;;;;;;24.46;44.99;100599.28;4438211;32;20068;-73
2021/07/11 01:40:44;;;;;;;7.65;4.70;;;;;;;24.54;44.85;100586.63;4425046;32;20410;-73
2021/07/11 01:43:11;;;;;;;10.18;4.55;;;;;;;24.56;44.83;100595.50;4440604;32;21268;-73
2021/07/11 01:45:37;;;;;;;8.05;4.20;;;;;;;24.67;44.53;100595.41;4428742;32;20063;-73
2021/07/11 01:48:05;;;;;;;9.23;4.40;;;;;;;24.61;44.48;100600.41;4438277;32;20073;-73
2021/07/11 01:50:32;;;;;;;10.77;4.47;;;;;;;24.46;44.90;100594.31;4424696;32;20384;-73
2021/07/11 01:52:58;;;;;;;8.05;4.95;;;;;;;24.59;44.51;100594.44;4439456;32;20522;-73
2021/07/11 01:55:26;;;;;;;6.72;4.43;;;;;;;24.64;44.56;100592.81;4429182;32;20063;-73
2021/07/11 01:57:52;;;;;;;7.30;4.35;;;;;;;24.79;44.13;100596.06;4436687;32;20067;-73
2021/07/11 02:00:19;;;;;;;7.28;4.18;;;;;;;24.61;44.48;100596.75;4439435;32;20041;-74
2021/07/11 02:02:46;;;;;;;7.10;4.55;;;;;;;24.57;44.56;100596.25;4424988;32;20038;-73
2021/07/11 02:05:13;;;;;;;9.43;4.35;;;;;;;24.69;44.22;100597.72;4425432;32;20034;-74
2021/07/11 02:07:40;;;;;;;10.57;4.80;;;;;;;24.58;44.33;100589.97;4424994;32;20086;-73
2021/07/11 02:10:09;;;;;;;7.30;3.95;;;;;;;24.40;44.69;100587.84;4426047;32;20084;-73
2021/07/11 02:12:39;;;;;;;8.00;4.55;;;;;;;24.34;45.07;100592.84;4426003;32;20537;-73
2021/07/11 02:15:07;;;;;;;8.00;4.60;;;;;;;24.39;45.11;100592.00;4422444;32;20061;-73
2021/07/11 02:17:37;;;;;;;10.40;3.95;;;;;;;24.39;45.06;100585.50;4424318;32;20386;-72
2021/07/11 02:20:06;;;;;;;8.75;4.10;;;;;;;24.44;45.03;100576.00;4420889;32;20073;-73
2021/07/11 02:22:34;;;;;;;6.00;3.95;;;;;;;24.37;45.16;100579.47;4420303;32;20086;-72
2021/07/11 02:25:00;;;;;;;10.70;4.68;;;;;;;24.43;45.03;100577.34;4424612;32;20092;-73
2021/07/11 02:27:27;;;;;;;9.50;4.85;;;;;;;24.19;45.37;100575.22;4425953;32;20072;-74
2021/07/11 02:29:56;;;;;;;8.52;4.32;;;;;;;24.17;45.50;100577.84;4424313;32;20065;-73
2021/07/11 02:32:24;;;;;;;6.87;4.72;;;;;;;24.14;45.43;100578.16;4422203;32;20069;-73
2021/07/11 02:34:50;;;;;;;5.95;3.80;;;;;;;24.28;45.36;100577.75;4421958;32;20097;-73
2021/07/11 02:37:21;;;;;;;7.15;4.25;;;;;;;23.99;45.74;100569.91;4415799;32;20057;-73
2021/07/11 02:39:49;;;;;;;10.50;4.50;;;;;;;24.26;45.29;100579.59;4413949;32;20034;-72
2021/07/11 02:42:17;;;;;;;6.75;4.62;;;;;;;24.28;45.15;100568.34;4407839;32;20146;-72
2021/07/11 02:44:47;;;;;;;9.25;4.03;;;;;;;24.26;45.40;100563.13;4412168;32;20073;-72
2021/07/11 02:47:17;;;;;;;6.87;4.28;;;;;;;24.34;45.16;100575.59;4407219;32;20423;-73
2021/07/11 02:49:48;;;;;;;13.48;4.60;;;;;;;24.36;45.10;100572.19;4410824;32;20053;-73
2021/07/11 02:52:17;;;;;;;7.22;4.55;;;;;;;24.25;45.30;100575.94;4411661;32;20070;-73
2021/07/11 02:54:47;;;;;;;8.77;4.93;;;;;;;24.23;45.38;100567.06;4413281;32;20062;-73
2021/07/11 02:57:17;;;;;;;8.07;4.47;;;;;;;24.29;45.29;100570.66;4413298;32;20475;-72
2021/07/11 02:59:46;;;;;;;8.35;4.87;;;;;;;24.22;45.49;100567.59;4413696;32;20089;-73
2021/07/11 03:02:13;;;;;;;7.15;4.82;;;;;;;24.22;45.42;100559.75;4406715;32;20074;-72
2021/07/11 03:04:42;;;;;;;6.55;4.60;;;;;;;24.05;45.81;100564.88;4410878;32;20098;-72
2021/07/11 03:07:08;;;;;;;8.00;5.03;;;;;;;24.21;45.50;100568.94;4414799;32;20107;-72
2021/07/11 03:09:35;;;;;;;7.60;4.75;;;;;;;24.01;45.72;100570.16;4414964;32;20087;-72
2021/07/11 03:12:01;;;;;;;10.35;4.62;;;;;;;24.06;45.67;100569.34;4413663;32;20101;-72
2021/07/11 03:14:28;;;;;;;7.97;4.85;;;;;;;23.88;45.85;100558.47;4414432;32;20064;-72
2021/07/11 03:16:56;;;;;;;8.85;4.87;;;;;;;24.00;45.50;100562.84;4411868;32;20026;-74
2021/07/11 03:19:24;;;;;;;5.87;4.37;;;;;;;24.14;45.41;100558.78;4410032;32;20099;-72
2021/07/11 03:21:50;;;;;;;7.32;4.78;;;;;;;24.11;45.40;100561.97;4412573;32;20487;-72
2021/07/11 03:24:21;;;;;;;9.23;4.93;;;;;;;24.12;45.36;100560.66;4412413;32;20046;-74
2021/07/11 03:26:49;;;;;;;10.00;4.53;;;;;;;24.24;45.24;100559.22;4415078;32;20065;-72
2021/07/11 03:29:25;;;;;;;10.23;5.00;;;;;;;24.08;45.64;100560.19;4411809;32;20103;-74
2021/07/11 03:31:54;;;;;;;8.43;4.85;;;;;;;24.18;45.34;100553.53;4409247;32;20086;-74
2021/07/11 03:34:26;;;;;;;8.48;5.00;;;;;;;24.10;45.63;100561.19;4411671;32;20112;-73
2021/07/11 03:36:54;;;;;;;7.72;5.03;;;;;;;24.00;45.76;100554.22;4407114;32;20111;-73
2021/07/11 03:39:23;;;;;;;7.90;4.65;;;;;;;24.07;45.62;100547.09;4406526;32;20030;-73
2021/07/11 03:41:49;;;;;;;9.05;4.85;;;;;;;24.01;45.82;100561.53;4409849;32;20359;-73
2021/07/11 03:44:18;;;;;;;7.82;5.65;;;;;;;24.14;45.59;100550.16;4401477;32;20518;-72
2021/07/11 03:46:46;;;;;;;12.45;6.00;;;;;;;23.97;45.87;100555.31;4411940;32;20077;-73
2021/07/11 03:49:13;;;;;;;9.15;5.90;;;;;;;24.07;45.62;100553.62;4399128;32;20073;-72
2021/07/11 03:51:40;;;;;;;11.40;5.57;;;;;;;23.89;45.89;100550.62;4409726;32;20034;-73
2021/07/11 03:54:10;;;;;;;9.43;5.18;;;;;;;23.90;45.95;100547.22;4401195;32;20049;-73
2021/07/11 03:56:37;;;;;;;8.25;5.35;;;;;;;24.03;45.69;100535.91;4413194;32;20088;-73
2021/07/11 03:59:06;;;;;;;10.23;5.72;;;;;;;23.96;45.75;100541.47;4412779;32;20088;-73
2021/07/11 04:01:35;;;;;;;8.45;5.57;;;;;;;24.06;45.55;100542.66;4410078;32;20474;-73
2021/07/11 04:04:05;;;;;;;8.07;5.12;;;;;;;24.02;45.72;100542.19;4411847;32;20034;-73
2021/07/11 04:06:32;;;;;;;10.60;6.10;;;;;;;24.06;45.54;100548.41;4410100;32;20632;-73
2021/07/11 04:09:02;;;;;;;12.20;6.18;;;;;;;23.78;45.97;100542.91;4413881;32;20050;-73
2021/07/11 04:11:28;;;;;;;12.23;6.00;;;;;;;23.72;46.19;100552.88;4412631;32;20090;-72
2021/07/11 04:13:54;;;;;;;11.38;5.45;;;;;;;23.58;46.17;100554.78;4414053;32;20088;-72
2021/07/11 04:16:24;;;;;;;11.07;5.90;;;;;;;23.47;46.45;100551.97;4410649;32;20049;-73
2021/07/11 04:18:52;;;;;;;9.68;5.62;;;;;;;23.68;46.18;100563.88;4413869;32;20026;-72
2021/07/11 04:21:19;;;;;;;7.80;5.03;;;;;;;23.75;46.00;100558.34;4398797;32;20360;-73
2021/07/11 04:23:47;;;;;;;8.73;5.47;;;;;;;23.62;46.19;100563.88;4414212;32;20303;-73
2021/07/11 04:26:13;;;;;;;11.27;5.62;;;;;;;23.69;46.02;100559.69;4398088;32;20074;-73
2021/07/11 04:28:43;;;;;;;10.45;5.60;;;;;;;23.70;45.99;100556.28;4412225;32;20498;-73
2021/07/11 04:31:09;;;;;;;9.43;5.62;;;;;;;23.69;45.89;100566.22;4400335;32;20669;-72
2021/07/11 04:33:36;;;;;;;6.93;5.00;;;;;;;23.73;46.00;100566.69;4407758;32;20030;-72
2021/07/11 04:36:06;;;;;;;10.93;5.78;;;;;;;23.58;46.18;100571.25;4405186;32;20089;-73
2021/07/11 04:38:32;;;;;;;8.98;5.40;;;;;;;23.77;45.92;100560.66;4401221;32;20068;-73
2021/07/11 04:40:59;;;;;;;14.20;6.12;;;;;;;23.63;45.99;100571.22;4413287;32;20046;-73
2021/07/11 04:43:24;;;;;;;14.13;6.78;;;;;;;23.51;46.17;100572.59;4396519;32;20038;-73
2021/07/11 04:45:50;;;;;;;9.40;6.07;;;;;;;23.65;46.12;100571.44;4412843;32;20099;-73
2021/07/11 04:48:16;;;;;;;10.10;6.32;;;;;;;23.67;46.13;100580.31;4400314;32;20068;-73
2021/07/11 04:50:45;;;;;;;10.13;6.47;;;;;;;23.81;45.73;100570.56;4410150;32;20030;-73
2021/07/11 04:53:13;;;;;;;13.80;7.28;;;;;;;24.08;45.35;100583.94;4400719;32;20037;-73
2021/07/11 04:55:40;;;;;;;14.30;6.90;;;;;;;24.03;45.63;100586.88;4407387;32;20081;-72
2021/07/11 04:58:05;;;;;;;16.00;7.22;;;;;;;23.98;45.62;100574.09;4409846;32;20094;-72
2021/07/11 05:00:31;;;;;;;12.98;7.03;;;;;;;24.21;45.16;100572.56;4411241;32;20038;-73
2021/07/11 05:02:57;;;;;;;12.90;7.70;;;;;;;24.16;45.19;100570.53;4411743;32;20038;-73
2021/07/11 05:05:23;;;;;;;16.67;8.20;;;;;;;24.29;44.91;100582.19;4412179;32;20100;-73
2021/07/11 05:07:48;;;;;;;12.50;7.75;;;;;;;24.35;44.87;100585.78;4408935;32;21087;-73
2021/07/11 05:10:14;;;;;;;13.23;7.80;;;;;;;24.40;44.71;100587.03;4412195;32;20017;-73
2021/07/11 05:12:40;;;;;;;14.35;8.20;;;;;;;24.38;44.73;100590.44;4406275;32;20097;-73
2021/07/11 05:15:08;;;;;;;10.85;7.65;;;;;;;24.39;44.79;100585.50;4410283;32;20295;-73
2021/07/11 05:17:34;;;;;;;10.38;7.03;;;;;;;24.82;44.13;100590.00;4409948;32;20096;-73
2021/07/11 05:20:01;;;;;;;16.87;8.02;;;;;;;24.78;43.97;100585.84;4407476;32;20473;-73
2021/07/11 05:22:28;;;;;;;11.63;6.80;;;;;;;24.87;43.87;100591.25;4411474;32;20034;-73
2021/07/11 05:24:53;;;;;;;10.35;6.65;;;;;;;24.93;43.88;100591.97;4410393;32;20107;-73
2021/07/11 05:27:19;;;;;;;14.00;7.40;;;;;;;25.07;43.31;100579.25;4412278;32;20029;-73
2021/07/11 05:29:45;;;;;;;13.45;7.75;;;;;;;25.09;43.41;100583.13;4412576;32;20104;-73
2021/07/11 05:32:10;;;;;;;10.95;7.00;;;;;;;25.28;43.15;100588.91;4409423;32;20158;-73
2021/07/11 05:34:36;;;;;;;13.73;7.45;;;;;;;25.50;42.85;100593.59;4405711;32;20088;-73
2021/07/11 05:37:02;;;;;;;11.15;6.87;;;;;;;25.50;42.86;100587.84;4410469;32;20410;-73
2021/07/11 05:39:28;;;;;;;11.12;7.18;;;;;;;25.65;42.79;100588.12;4413175;32;20437;-73
2021/07/11 05:41:54;;;;;;;11.63;7.03;;;;;;;25.73;42.61;100583.28;4409065;32;20130;-73
2021/07/11 05:44:20;;;;;;;11.35;6.87;;;;;;;25.92;42.34;100592.69;4409548;32;20404;-73
2021/07/11 05:46:45;;;;;;;11.07;6.40;;;;;;;26.10;41.98;100591.88;4411103;32;20069;-73
2021/07/11 05:49:11;;;;;;;11.15;7.93;;;;;;;26.23;41.79;100591.94;4411141;32;20110;-73
2021/07/11 05:51:37;;;;;;;12.77;8.45;;;;;;;26.23;41.74;100589.03;4412157;32;20087;-73
2021/07/11 05:54:03;;;;;;;11.95;8.60;;;;;;;26.05;42.07;100592.75;4408257;32;20061;-73
2021/07/11 05:56:28;;;;;;;11.27;7.60;;;;;;;26.39;41.76;100582.97;4414632;32;20030;-73
2021/07/11 05:58:54;;;;;;;13.95;8.23;;;;;;;26.59;41.41;100587.31;4411709;32;20022;-73
2021/07/11 06:01:21;;;;;;;15.43;7.97;;;;;;;26.64;41.36;100592.25;4406338;32;20100;-73
2021/07/11 06:03:46;;;;;;;12.70;8.25;;;;;;;26.92;40.86;100590.38;4410865;32;20075;-73
2021/07/11 06:06:13;;;;;;;13.18;7.65;;;;;;;26.74;40.84;100593.34;4411346;32;20088;-73
2021/07/11 06:08:39;;;;;;;13.68;8.60;;;;;;;26.96;40.72;100592.91;4411504;32;20434;-73
2021/07/11 06:11:04;;;;;;;12.07;6.80;;;;;;;26.97;40.76;100600.25;4409759;32;20051;-73
2021/07/11 06:13:30;;;;;;;11.55;7.37;;;;;;;26.74;41.17;100591.25;4412528;32;20035;-73
2021/07/11 06:15:56;;;;;;;10.55;6.35;;;;;;;26.88;40.87;100601.44;4410826;32;20060;-73
2021/07/11 06:18:23;;;;;;;10.48;6.80;;;;;;;26.90;41.08;100603.78;4415136;32;20077;-73
2021/07/11 06:20:49;;;;;;;14.77;7.87;;;;;;;26.97;40.86;100594.47;4414296;32;20057;-73
2021/07/11 06:23:15;;;;;;;10.25;7.10;;;;;;;26.99;40.70;100597.56;4408815;32;20081;-73
2021/07/11 06:25:41;;;;;;;10.73;7.37;;;;;;;27.05;40.74;100592.44;4413516;32;20089;-73
2021/07/11 06:28:07;;;;;;;11.40;7.18;;;;;;;26.92;41.01;100592.47;4414302;32;20034;-73
2021/07/11 06:30:33;;;;;;;14.38;7.50;;;;;;;26.94;40.99;100593.44;4397079;32;20101;-73
2021/07/11 06:32:59;;;;;;;15.50;8.25;;;;;;;26.97;40.81;100586.56;4412770;32;20096;-73
2021/07/11 06:35:25;;;;;;;13.90;7.10;;;;;;;27.13;40.44;100587.56;4397893;32;20341;-73
2021/07/11 06:37:51;;;;;;;12.65;7.22;;;;;;;27.47;39.93;100591.31;4412372;32;20038;-73
2021/07/11 06:40:21;;;;;;;9.73;6.95;;;;;;;27.72;39.65;100588.88;4405349;32;20065;-73
2021/07/11 06:42:47;;;;;;;13.07;6.03;;;;;;;27.46;40.10;100595.53;4408048;32;20046;-73
2021/07/11 06:45:13;;;;;;;14.23;6.35;;;;;;;27.47;40.01;100582.63;4409586;32;20096;-73
2021/07/11 06:47:40;;;;;;;8.80;6.57;;;;;;;27.45;40.05;100590.31;4398598;32;20046;-73
2021/07/11 06:50:09;;;;;;;11.35;6.85;;;;;;;27.55;39.98;100576.94;4412469;32;20136;-73
2021/07/11 06:52:34;;;;;;;10.05;6.43;;;;;;;27.70;39.86;100580.75;4398858;32;20070;-73
2021/07/11 06:55:03;;;;;;;11.23;6.85;;;;;;;27.50;39.98;100580.72;4413575;32;20334;-73
2021/07/11 06:57:29;;;;;;;10.20;6.20;;;;;;;27.81;39.81;100577.62;4401207;32;20105;-73
2021/07/11 07:00:00;;;;;;;13.65;6.78;;;;;;;27.66;39.98;100588.22;4410030;32;20426;-73
2021/07/11 07:02:26;;;;;;;9.52;6.62;;;;;;;27.67;40.21;100584.78;4405771;32;20348;-73
2021/07/11 07:04:52;;;;;;;10.38;6.70;;;;;;;27.91;39.73;100577.91;4406197;32;20137;-73
2021/07/11 07:07:17;;;;;;;9.40;6.60;;;;;;;28.56;38.53;100584.12;4410887;32;20773;-72
2021/07/11 07:09:51;;;;;;;10.63;6.82;;;;;;;28.44;38.69;100576.28;4399457;32;20550;-73
2021/07/11 07:12:18;;;;;;;11.88;6.03;;;;;;;28.21;38.93;100589.78;4412607;32;20073;-73
2021/07/11 07:14:44;;;;;;;9.05;5.93;;;;;;;28.29;38.95;100585.59;4398051;32;20203;-73
2021/07/11 07:17:09;;;;;;;10.48;6.45;;;;;;;28.77;38.13;100592.75;4411536;32;20045;-73
2021/07/11 07:19:35;;;;;;;10.77;6.12;;;;;;;29.01;37.44;100593.13;4391821;32;20101;-73
2021/07/11 07:22:01;;;;;;;10.77;5.75;;;;;;;29.20;37.26;100592.09;4413682;32;20079;-73
2021/07/11 07:24:27;;;;;;;9.50;5.87;;;;;;;28.82;37.73;100589.72;4402078;32;20810;-73
2021/07/11 07:26:53;;;;;;;8.98;5.70;;;;;;;28.76;38.08;100582.53;4403819;32;20042;-73
2021/07/11 07:29:19;;;;;;;10.60;6.03;;;;;;;28.90;37.78;100581.09;4405905;32;20348;-72
2021/07/11 07:31:47;;;;;;;9.57;5.62;;;;;;;29.20;37.31;100583.38;4397695;32;20085;-73
2021/07/11 07:34:28;;;;;;;7.68;5.22;;;;;;;29.29;36.83;100586.50;4412830;32;20050;-73
2021/07/11 07:36:58;;;;;;;9.15;5.12;;;;;;;29.38;36.75;100582.28;4399012;32;20182;-73
2021/07/11 07:39:26;;;;;;;6.72;4.53;;;;;;;28.83;37.68;100578.88;4411493;32;20022;-73
2021/07/11 07:41:53;;;;;;;7.07;4.00;;;;;;;29.20;36.97;100589.94;4397210;32;21153;-73
2021/07/11 07:44:21;;;;;;;6.37;3.42;;;;;;;29.33;36.73;100577.44;4410008;32;20467;-72
2021/07/11 07:46:47;;;;;;;5.97;3.55;;;;;;;29.75;35.85;100582.44;4399291;32;20074;-73
2021/07/11 07:49:13;;;;;;;8.93;3.58;;;;;;;30.13;35.19;100589.06;4405778;32;20038;-73
2021/07/11 07:51:40;;;;;;;6.90;3.90;;;;;;;29.74;35.36;100591.72;4401890;32;20070;-72
2021/07/11 07:54:06;;;;;;;4.62;3.28;;;;;;;29.97;35.07;100595.47;4397968;32;20100;-73
2021/07/11 07:56:33;;;;;;;6.90;3.50;;;;;;;30.52;34.68;100602.28;4411235;32;20089;-73
2021/07/11 07:59:00;;;;;;;4.80;3.67;;;;;;;30.58;33.55;100588.34;4394216;32;20030;-73
2021/07/11 08:01:25;;;;;;;5.10;3.40;;;;;;;30.45;33.53;100592.22;4410153;32;20125;-73
2021/07/11 08:03:51;;;;;;;5.57;3.80;;;;;;;30.21;34.16;100592.03;4396612;32;20104;-73
2021/07/11 08:06:17;;;;;;;5.53;3.20;;;;;;;29.95;34.80;100596.03;4412349;32;20101;-73
2021/07/11 08:08:42;;;;;;;6.72;3.62;;;;;;;29.95;34.86;100589.47;4401185;32;20064;-73
2021/07/11 08:11:08;;;;;;;7.75;3.70;;;;;;;29.90;34.58;100588.28;4407484;32;20410;-73
2021/07/11 08:13:36;;;;;;;6.57;3.87;;;;;;;30.06;34.18;100577.50;4411593;32;20086;-73
2021/07/11 08:16:03;;;;;;;5.28;3.60;;;;;;;30.28;33.71;100579.66;4399773;32;20487;-73
2021/07/11 08:18:29;;;;;;;5.90;3.37;;;;;;;30.51;34.46;100584.09;4403987;32;20516;-73
2021/07/11 08:20:54;;;;;;;6.47;3.87;;;;;;;30.21;34.60;100580.41;4395283;32;20025;-73
2021/07/11 08:23:20;;;;;;;6.72;3.72;;;;;;;30.30;34.42;100582.72;4412716;32;20158;-73
2021/07/11 08:25:46;;;;;;;4.50;3.40;;;;;;;30.02;34.95;100580.75;4397340;32;20074;-73
2021/07/11 08:28:12;;;;;;;5.47;3.05;;;;;;;30.68;34.21;100574.78;4411583;32;20511;-73
2021/07/11 08:30:37;;;;;;;5.22;3.20;;;;;;;31.17;33.61;100580.13;4402062;32;20081;-73
2021/07/11 08:33:04;;;;;;;7.03;3.40;;;;;;;31.48;31.84;100578.66;4403019;32;21138;-73
2021/07/11 08:35:29;;;;;;;4.53;3.30;;;;;;;31.57;31.75;100578.78;4407061;32;20347;-73
2021/07/11 08:37:55;;;;;;;4.10;2.80;;;;;;;31.37;32.18;100574.03;4397359;32;20461;-73
2021/07/11 08:40:21;;;;;;;6.22;2.85;;;;;;;31.89;31.47;100578.84;4410651;32;20056;-73
2021/07/11 08:42:50;;;;;;;3.62;3.00;;;;;;;32.35;30.68;100576.37;4394858;32;20122;-73
2021/07/11 08:45:17;;;;;;;4.50;2.95;;;;;;;32.62;30.79;100583.13;4406401;32;20069;-73
2021/07/11 08:47:43;;;;;;;3.72;2.70;;;;;;;32.45;30.86;100583.84;4394881;32;20424;-73
2021/07/11 08:50:12;;;;;;;7.15;3.08;;;;;;;32.15;30.76;100578.25;4407075;32;20073;-73
2021/07/11 08:52:38;;;;;;;5.50;2.92;;;;;;;32.15;31.02;100592.81;4405284;32;20442;-73
2021/07/11 08:55:23;;;;;;;4.32;2.70;;;;;;;32.05;31.22;100585.31;4396723;32;20090;-73
2021/07/11 08:57:53;;;;;;;4.93;2.60;;;;;;;32.33;31.36;100594.41;4407927;32;20105;-73
2021/07/11 09:00:23;;;;;;;5.87;3.40;;;;;;;33.05;30.59;100591.25;4397778;32;20162;-70
2021/07/11 09:02:49;;;;;;;3.75;2.40;;;;;;;33.61;29.50;100598.16;4408914;32;20034;-73
2021/07/11 09:08:02;;;;;;;3.70;2.53;;;;;;;33.63;28.26;100590.38;3986706;32;15022618;-72
2021/07/11 09:10:31;;;;;;;2.62;2.08;;;;;;;33.63;28.26;100590.38;4424314;32;20155;-73
2021/07/11 09:12:56;;;;;;;4.65;2.60;;;;;;;32.98;28.90;100589.22;4436126;32;20042;-73
2021/07/11 09:15:31;;;;;;;4.53;2.85;;;;;;;32.41;29.82;100588.56;4425382;32;20103;-72
2021/07/11 09:17:58;;;;;;;4.80;2.97;;;;;;;32.03;30.58;100583.00;4441015;32;20037;-73
2021/07/11 09:20:24;;;;;;;6.35;2.70;;;;;;;31.64;31.30;100589.63;4428011;32;20103;-73
2021/07/11 09:23:05;;;;;;;3.65;3.08;;;;;;;31.96;30.64;100585.94;4430678;32;20077;-72
2021/07/11 09:25:31;;;;;;;4.30;3.20;;;;;;;31.72;31.80;100583.78;4435201;32;20077;-72
2021/07/11 09:27:57;;;;;;;3.75;2.85;;;;;;;31.47;32.04;100580.78;4426975;32;20137;-72
2021/07/11 09:30:23;;;;;;;7.00;3.37;;;;;;;31.53;31.88;100590.06;4438361;32;20080;-72
2021/07/11 09:32:52;;;;;;;7.93;3.87;;;;;;;31.32;32.42;100577.19;4439534;32;20073;-72
2021/07/11 09:35:22;;;;;;;5.93;3.25;;;;;;;31.14;32.81;100587.88;4439601;32;20161;-72
2021/07/11 09:37:54;;;;;;;6.53;3.90;;;;;;;31.46;32.58;100572.66;4438664;32;20038;-73
2021/07/11 09:40:23;;;;;;;7.05;3.28;;;;;;;31.44;32.65;100573.22;4436117;32;20085;-73
2021/07/11 09:42:55;;;;;;;5.80;3.53;;;;;;;31.53;32.64;100574.75;4433043;32;20061;-73
2021/07/11 09:48:06;;;;;;;5.43;3.22;;;;;;;32.38;31.49;100584.72;3982023;32;15023464;-72
2021/07/11 09:50:32;;;;;;;5.30;3.50;;;;;;;32.38;31.49;100584.72;4441386;32;20080;-71
2021/07/11 09:52:59;;;;;;;6.40;3.53;;;;;;;31.38;32.45;100578.50;4440109;32;20429;-73
2021/07/11 09:55:28;;;;;;;9.25;3.97;;;;;;;31.83;31.82;100572.47;4441102;32;20056;-73
2021/07/11 10:00:38;;;;;;;3.90;3.30;;;;;;;32.81;29.71;100585.47;3983005;32;15029109;-72
2021/07/11 10:03:10;;;;;;;4.60;3.17;;;;;;;32.81;29.71;100585.47;4422850;32;20072;-72
2021/07/11 10:05:35;;;;;;;5.15;3.08;;;;;;;32.73;29.82;100585.53;4426895;32;20076;-72
2021/07/11 10:08:03;;;;;;;5.25;3.70;;;;;;;32.73;29.91;100593.53;4426113;32;20494;-71
2021/07/11 10:10:32;;;;;;;5.90;3.30;;;;;;;32.52;30.43;100594.66;4419462;32;20037;-72
2021/07/11 10:12:59;;;;;;;5.03;3.30;;;;;;;32.93;29.99;100595.28;4424014;32;20099;-72
2021/07/11 10:15:28;;;;;;;5.57;4.00;;;;;;;32.39;30.73;100594.97;4425125;32;20117;-72
2021/07/11 10:20:40;;;;;;;4.53;3.95;;;;;;;32.95;30.24;100592.53;3983450;32;15046020;-73
2021/07/11 10:23:08;;;;;;;6.10;3.40;;;;;;;32.95;30.24;100592.53;4435339;32;20386;-73
2021/07/11 10:25:35;;;;;;;7.80;4.20;;;;;;;32.46;30.66;100593.37;4436519;32;20083;-73
2021/07/11 10:28:16;;;;;;;5.20;3.97;;;;;;;32.81;30.26;100591.28;4435804;32;20138;-73
2021/07/11 10:30:46;;;;;;;4.47;3.65;;;;;;;33.34;29.44;100592.25;4433256;32;20060;-73
2021/07/11 10:33:15;;;;;;;5.20;3.45;;;;;;;32.97;29.93;100590.56;4434552;32;20147;-73
2021/07/11 10:41:15;;;;;;;4.50;3.43;;;;;;;33.21;29.55;100583.88;3999479;31;15019130;-71
2021/07/11 10:43:58;;;;;;;4.60;3.67;;;;;;;33.21;29.55;100583.88;4451618;32;20162;-72
2021/07/11 10:49:17;;;;;;;4.82;3.58;;;;;;;33.99;28.14;100578.00;3984941;32;15023349;-72
2021/07/11 10:57:37;;;;;;;8.70;4.12;;;;;;;34.86;27.35;100580.66;3983858;32;15024085;-72
2021/07/11 11:00:28;;;;;;;5.10;3.90;;;;;;;34.86;27.35;100580.66;4437702;32;20029;-72
2021/07/11 11:02:55;;;;;;;4.53;3.25;;;;;;;34.75;27.25;100578.28;4423562;32;20030;-72
2021/07/11 11:05:23;;;;;;;5.22;4.15;;;;;;;34.56;27.57;100568.69;4420516;32;20023;-72
2021/07/11 11:18:20;;;;;;;5.93;4.00;;;;;;;35.82;26.28;100555.03;4002463;31;15015133;-72
2021/07/11 11:20:52;;;;;;;7.07;4.05;;;;;;;35.82;26.28;100555.03;4439939;32;20136;-72
2021/07/11 11:23:17;;;;;;;5.68;4.45;;;;;;;35.84;26.16;100558.91;4447218;32;20033;-72
2021/07/11 11:25:45;;;;;;;6.28;4.40;;;;;;;35.53;26.61;100560.19;4451901;32;20097;-72
2021/07/11 11:28:12;;;;;;;6.43;3.80;;;;;;;35.71;26.43;100553.50;4448436;32;20098;-72
2021/07/11 11:30:38;;;;;;;5.62;4.20;;;;;;;36.02;25.64;100556.53;4454870;32;20044;-72
2021/07/11 11:33:05;;;;;;;6.95;3.97;;;;;;;35.82;25.38;100552.88;4443890;32;20329;-72
2021/07/11 11:35:33;;;;;;;4.70;3.42;;;;;;;36.02;25.03;100556.53;4440436;32;20308;-72
2021/07/11 11:38:03;;;;;;;4.90;3.08;;;;;;;37.07;23.92;100558.87;4443061;32;20126;-72
2021/07/11 11:40:30;;;;;;;8.20;3.72;;;;;;;37.74;22.45;100550.25;4456113;32;20118;-72
2021/07/11 11:43:00;;;;;;;4.12;2.97;;;;;;;37.86;22.31;100551.03;4449246;32;20085;-72
2021/07/11 11:45:30;;;;;;;3.80;3.00;;;;;;;38.07;21.93;100547.22;4454249;32;20077;-73
2021/07/11 11:50:40;;;;;;;2.92;2.37;;;;;;;39.44;20.41;100569.03;3982884;32;15022188;-72
2021/07/11 11:53:12;;;;;;;4.87;3.20;;;;;;;39.44;20.41;100569.03;4441584;32;20421;-72
2021/07/11 11:55:40;;;;;;;7.45;3.03;;;;;;;39.55;20.73;100557.22;4416468;32;20041;-72
2021/07/11 11:58:08;;;;;;;4.45;3.58;;;;;;;39.61;21.00;100562.69;4427299;32;20435;-72
2021/07/11 12:00:35;;;;;;;5.60;3.33;;;;;;;38.87;21.56;100567.78;4439754;32;20067;-72
2021/07/11 12:03:04;;;;;;;3.45;3.12;;;;;;;38.69;21.36;100575.50;4434132;32;20670;-72
2021/07/11 12:05:32;;;;;;;3.35;2.83;;;;;;;38.61;21.29;100565.41;4431764;32;20257;-72